This is the latest recevied weather packets stored in our database for station/object WA4IKQ. If no packets are shown the sender has not sent any weather packets the latest 10 day(s).
| Time | Temp. | Humidity | Pressure | Rain* | Wind** | Luminosity | Snow |
|---|---|---|---|---|---|---|---|
| 1778157139 | 23.89° C | 82% | 1015.9 hPa | 0 mm | 2.68 m/s, 148° | - | - |
| 1778157068 | 23.89° C | 82% | 1015.9 hPa | 0 mm | 2.68 m/s, 148° | - | - |
| 1778156997 | 23.89° C | 83% | 1015.9 hPa | 0 mm | 2.68 m/s, 131° | - | - |
| 1778156768 | 23.89° C | 83% | 1015.9 hPa | 0 mm | 2.68 m/s, 131° | - | - |
| 1778156608 | 23.89° C | 84% | 1015.9 hPa | 0 mm | 0.45 m/s, 105° | - | - |
| 1778156287 | 23.33° C | 84% | 1015.8 hPa | 0 mm | 1.34 m/s, 148° | - | - |
| 1778156169 | 23.33° C | 84% | 1015.8 hPa | 0 mm | 1.34 m/s, 148° | - | - |
| 1778156000 | 23.33° C | 85% | 1015.9 hPa | 0 mm | 1.79 m/s, 153° | - | - |
| 1778155869 | 23.33° C | 85% | 1015.9 hPa | 0 mm | 1.79 m/s, 153° | - | - |
| 1778155569 | 22.78° C | 85% | 1015.9 hPa | 0 mm | 2.24 m/s, 132° | - | - |
| 1778155267 | 22.78° C | 86% | 1015.8 hPa | 0 mm | 2.24 m/s, 114° | - | - |
| 1778155238 | 22.78° C | 86% | 1015.8 hPa | 0 mm | 0.45 m/s, 122° | - | - |
| 1778154967 | 22.78° C | 86% | 1015.8 hPa | 0 mm | 0.45 m/s, 122° | - | - |
| 1778154864 | 22.22° C | 86% | 1015.9 hPa | 0 mm | 1.34 m/s, 150° | - | - |
| 1778154820 | 22.22° C | 86% | 1015.9 hPa | 0 mm | 1.34 m/s, 150° | - | - |
| 1778154667 | 22.22° C | 86% | 1015.9 hPa | 0 mm | 1.34 m/s, 150° | - | - |
| 1778154497 | 22.22° C | 87% | 1015.8 hPa | 0 mm | 1.79 m/s, 143° | - | - |
| 1778154368 | 22.22° C | 87% | 1015.8 hPa | 0 mm | 1.79 m/s, 143° | - | - |
| 1778153887 | 21.67° C | 87% | 1015.8 hPa | 0 mm | 0.45 m/s, 110° | - | - |
| 1778152994 | 21.67° C | 87% | 1015.5 hPa | 0 mm | 2.24 m/s, 167° | - | - |
| 1778152874 | 21.67° C | 87% | 1015.5 hPa | 0 mm | 2.24 m/s, 167° | - | - |
| 1778152684 | 21.67° C | 86% | 1015.4 hPa | 0 mm | 0.89 m/s, 149° | - | - |
| 1778152567 | 21.67° C | 86% | 1015.4 hPa | 0 mm | 0.89 m/s, 149° | - | - |
| 1778152417 | 21.67° C | 86% | 1015.4 hPa | 0 mm | 0 m/s | - | - |
| 1778152298 | 21.67° C | 86% | 1015.4 hPa | 0 mm | 0 m/s | - | - |
* Rain latest hour (hover to see other rain measurements)
** Current wind speed in m/s (hover to see current wind gust speed)